N1936L KGOK-KDFW
Flight info
| Callsign | N1936L |
|---|---|
| Flight time | N/A |
| Altitude | 17000 |
| Route | EAKER BYP WILBR1 |
| Aircraft | S22T/L-BGRSVY/CU1 |
Departure
| Time | 2026-04-21 21:09 |
|---|---|
| Airport | Guthrie-Edmond Regional Airport (KGOK) |
Arrival
| Time | N/A |
|---|---|
| Airport | Dallas Fort Worth International Airport (KDFW) |
| Time | Latitude | Longitude | Altitude | Speed | Heading |
|---|---|---|---|---|---|
| 2026-04-21 20:54 | 35.85027 | -97.41829 | 1070 ft | 0 kts | 30° |
| 2026-04-21 21:00 | 35.85028 | -97.41827 | 1070 ft | 1 kts | 31° |
| 2026-04-21 21:00 | 35.85076 | -97.41836 | 1070 ft | 9 kts | 353° |
| 2026-04-21 21:00 | 35.85142 | -97.41845 | 1070 ft | 11 kts | 299° |
| 2026-04-21 21:00 | 35.85186 | -97.41940 | 1070 ft | 12 kts | 298° |
| 2026-04-21 21:01 | 35.85234 | -97.42049 | 1070 ft | 15 kts | 297° |
| 2026-04-21 21:01 | 35.85301 | -97.42073 | 1070 ft | 15 kts | 70° |
| 2026-04-21 21:01 | 35.85331 | -97.41945 | 1070 ft | 16 kts | 77° |
| 2026-04-21 21:01 | 35.85379 | -97.41803 | 1070 ft | 17 kts | 6° |
| 2026-04-21 21:02 | 35.85510 | -97.41843 | 1070 ft | 19 kts | 345° |
| 2026-04-21 21:02 | 35.85632 | -97.41882 | 1070 ft | 15 kts | 344° |
| 2026-04-21 21:02 | 35.85742 | -97.41919 | 1070 ft | 15 kts | 346° |
| 2026-04-21 21:02 | 35.85792 | -97.41922 | 1070 ft | 0 kts | 68° |
| 2026-04-21 21:08 | 35.85794 | -97.41914 | 1070 ft | 8 kts | 72° |
| 2026-04-21 21:08 | 35.85802 | -97.41833 | 1070 ft | 4 kts | 159° |
| 2026-04-21 21:08 | 35.85615 | -97.41769 | 1070 ft | 66 kts | 164° |
| 2026-04-21 21:08 | 35.84972 | -97.41558 | 1217 ft | 102 kts | 163° |
| 2026-04-21 21:09 | 35.84327 | -97.41330 | 1752 ft | 93 kts | 165° |
| 2026-04-21 21:09 | 35.83604 | -97.41213 | 2003 ft | 113 kts | 180° |
| 2026-04-21 21:09 | 35.82800 | -97.41119 | 2473 ft | 109 kts | 166° |
| 2026-04-21 21:09 | 35.81983 | -97.40972 | 2859 ft | 114 kts | 168° |
| 2026-04-21 21:10 | 35.81157 | -97.40764 | 3277 ft | 114 kts | 165° |
| 2026-04-21 21:10 | 35.80372 | -97.40551 | 3681 ft | 115 kts | 165° |
| 2026-04-21 21:10 | 35.79640 | -97.40151 | 4052 ft | 116 kts | 132° |